Airai Hamlet, Palau

6:28 PM +09 on 四月 24, 2017 (GMT +0900)
Babelthuap/koror | | Change Station

高度 108 ft 7.33 °N, 134.48 °E | Updated 38 minutes ago

だいたい曇
だいたい曇
79 °F
体感気温 79 °F
4
風 変数 風 から 北北東

今日
高い -- | 低 -- °F
--% 降水確率
昨日
高い -- | 低 -- °F
Precip. -- インチ
気圧 29.76 インチ
視程 14.0 マイル
やや曇 1600 ft
だいたい曇 12000 ft
だいたい曇 30000 ft
露点温度 77 °F
湿度 94%
降水 0.00 インチ
積雪深 利用不可。
5:49 AM 6:10 PM
二十六夜, 6% visible
METAR PTRO 240850Z 03003KT 14SM VCSH SCT016CB BKN120 BKN300 26/25 A2976 VCSH NE RMK CB VC N-NE
気圧 29.76 インチ
視程 14.0 マイル
やや曇 1600 ft
だいたい曇 12000 ft
だいたい曇 30000 ft
露点温度 77 °F
湿度 94%
降水 0.00 インチ
積雪深 利用不可。
5:49 AM 6:10 PM
二十六夜, 6% visible
METAR PTRO 240850Z 03003KT 14SM VCSH SCT016CB BKN120 BKN300 26/25 A2976 VCSH NE RMK CB VC N-NE

Get Severe Weather Alerts

Thanks for signing up!

Be on the lookout for a verification email in your inbox.

You'll start receiving the daily forecast at 8 AM.

×

10-Day Weather Forecast

No radar image for this location.
×

Almanac

天文

Apr. 24, 2017 入り
実時間
常用薄明
航海薄明
天文薄明
可視光の長さ
可照時間
Tomorrow will be .
, % of the Moon is Illuminated

今日の極値

Country Highs Country Lows

Community

WunderBlog® & News

Nearby

空気品質

  空気品質 大気質指数 汚染物質
Not available.

積雪深

Station Depth 高度

地震活動

Distance Mag. Time & Date
Minimum magnitude displayed is 2.5.

沿岸の水温

地名 気温

Stations

最寄りの気象観測所

観測所位置 温度 体感気温(寒さ) 露点温度 湿度 Precip. 高度 更新日時 タイプする